New Yoshino — JG5527 — position and weather

sailwx.info

Track history (hours):
 
Tides and Currents Weather Stations Pressure Air Temp Water Temp Dewpoint Dewpoint Depression Visibility Wind Speed Wind Dir Waves Ship Positions

New Yoshino

Last reported at 2015-Jun-30 16:30 UTC. Time now 2015-Jul-01 19:18 UTC.
Position N 36°11' E 141°04'.

Length 102 m; draft 6.3 m.

Type: Tanker. MMSI: 431300724.

Date/timePositionNaut miles runAvg speedWind from/ knotsBaromVisibWave heightAir tempDewpointWater temp
2015-Jun-30 16:30N 36°11' E 141°04'1212.8
2015-Jun-30 15:33N 35°60' E 141°02'1312.9
2015-Jun-30 14:33N 35°47' E 140°59'1313.0
2015-Jun-30 13:33N 35°35' E 140°53'1413.8
2015-Jun-30 12:33N 35°24' E 140°42'3113.5
2015-Jun-30 10:15N 35°01' E 140°17'912.9
2015-Jun-30 09:33N 34°56' E 140°07'2010.1
2015-Jun-30 07:33N 34°56' E 139°43'1313.1
2015-Jun-30 06:33N 35°08' E 139°45'1211.7
2015-Jun-30 05:34N 35°20' E 139°42'1110.9
2015-Jun-30 04:33N 35°30' E 139°47'1 1.2
2015-Jun-30 03:31N 35°31' E 139°46'0 0.0
2015-Jun-30 02:10N 35°31' E 139°46'0 0.0
2015-Jun-30 01:28N 35°31' E 139°46'0 0.0
2015-Jun-30 00:28N 35°31' E 139°46'0 0.0
2015-Jun-29 23:25N 35°31' E 139°46'0 0.0
2015-Jun-29 22:31N 35°31' E 139°46'0 0.0
2015-Jun-29 21:31N 35°31' E 139°46'1 1.1
2015-Jun-29 20:33N 35°30' E 139°45'0 0.0
2015-Jun-29 19:33N 35°30' E 139°45'0 0.0
2015-Jun-29 18:33N 35°30' E 139°45'0 0.0
2015-Jun-29 17:33N 35°30' E 139°45'0 0.0
2015-Jun-29 16:30N 35°30' E 139°45'0 0.0
2015-Jun-29 15:33N 35°30' E 139°45'0 0.0
2015-Jun-29 14:33N 35°30' E 139°45'0 0.0
2015-Jun-29 13:33N 35°30' E 139°45'0 0.0
2015-Jun-29 12:33N 35°30' E 139°45'0 0.0
2015-Jun-29 11:33N 35°30' E 139°45'0 0.0
2015-Jun-29 10:33N 35°30' E 139°45'0 0.0
2015-Jun-29 09:33N 35°30' E 139°45'0 0.0
2015-Jun-29 08:33N 35°30' E 139°45'0 0.0
2015-Jun-29 07:33N 35°30' E 139°45'0 0.0
2015-Jun-29 06:33N 35°30' E 139°45'0 0.0
2015-Jun-29 05:33N 35°30' E 139°45'0 0.0
2015-Jun-29 04:30N 35°30' E 139°45'0 0.0
2015-Jun-29 03:33N 35°30' E 139°45'0 0.0
2015-Jun-29 02:33N 35°30' E 139°45'0 0.0
2015-Jun-29 01:33N 35°30' E 139°45'0 0.0
2015-Jun-29 00:33N 35°30' E 139°45'1 1.1
2015-Jun-28 23:33N 35°30' E 139°44'6 5.7
2015-Jun-28 22:33N 35°24' E 139°45'0 0.0
2015-Jun-28 21:33N 35°24' E 139°45'5 4.7
2015-Jun-28 20:33N 35°20' E 139°43'1211.5
2015-Jun-28 19:33N 35°09' E 139°46'1313.2
2015-Jun-28 18:33N 34°59' E 139°34'7 0.2
2015-Jun-27 09:06N 34°55' E 139°27'611.4
2015-Jun-27 08:32N 34°60' E 139°33'1111.5
2015-Jun-27 07:34N 35°07' E 139°43'1111.3
2015-Jun-27 06:34N 35°18' E 139°44'1010.5
2015-Jun-27 05:34N 35°28' E 139°50'1110.6
2015-Jun-27 04:34N 35°31' E 140°02'0 0.4
2015-Jun-27 03:33N 35°31' E 140°02'0 0.0
2015-Jun-27 02:33N 35°31' E 140°02'0 0.0
2015-Jun-27 01:33N 35°31' E 140°02'0 0.0
2015-Jun-27 00:30N 35°31' E 140°02'0 0.0
2015-Jun-26 23:33N 35°31' E 140°02'5 5.2
2015-Jun-26 22:33N 35°30' E 139°56'1 0.9
2015-Jun-26 21:20N 35°30' E 139°55'0 0.0
2015-Jun-26 20:32N 35°30' E 139°55'0 0.0
2015-Jun-26 19:05N 35°30' E 139°55'0 0.0
2015-Jun-26 18:17N 35°30' E 139°55'0 0.0
2015-Jun-26 17:17N 35°30' E 139°55'0 0.0
2015-Jun-26 16:23N 35°30' E 139°55'0 0.0
2015-Jun-26 15:29N 35°30' E 139°55'0 0.0
2015-Jun-26 14:29N 35°30' E 139°55'0 0.0
2015-Jun-26 13:29N 35°30' E 139°55'0 0.0
2015-Jun-26 12:32N 35°30' E 139°55'0 0.0
2015-Jun-26 11:17N 35°30' E 139°55'0 0.1
2015-Jun-26 10:29N 35°30' E 139°55'0 0.0
2015-Jun-26 09:29N 35°30' E 139°55'0 0.0
2015-Jun-26 08:23N 35°30' E 139°55'7 8.1
2015-Jun-26 07:33N 35°30' E 139°47'1 1.0
2015-Jun-26 06:28N 35°31' E 139°46'0 0.0
2015-Jun-26 05:28N 35°31' E 139°46'1 0.9
2015-Jun-26 04:33N 35°30' E 139°46'6 6.1
2015-Jun-26 03:31N 35°24' E 139°45'0 0.0
2015-Jun-26 02:28N 35°24' E 139°45'0 0.0
2015-Jun-26 01:31N 35°24' E 139°45'0 0.0
2015-Jun-26 00:31N 35°24' E 139°45'0 0.0
2015-Jun-25 23:31N 35°24' E 139°45'0 0.0
2015-Jun-25 22:31N 35°24' E 139°45'0 0.0
2015-Jun-25 21:31N 35°24' E 139°45'8 8.8
2015-Jun-25 20:33N 35°16' E 139°46'1212.1
2015-Jun-25 19:33N 35°04' E 139°42'1413.6
2015-Jun-25 18:33N 34°56' E 139°29'23011.9
2015-Jun-24 23:10N 33°56' E 134°59'914.5
2015-Jun-24 22:33N 34°04' E 134°59'1514.5
2015-Jun-24 21:33N 34°19' E 134°59'1414.0
2015-Jun-24 20:32N 34°29' E 135°12'1212.4
2015-Jun-24 19:34N 34°33' E 135°25'0 0.0
2015-Jun-24 08:21N 34°33' E 135°26'1 1.1
2015-Jun-24 07:33N 34°33' E 135°25'5 4.7
2015-Jun-24 06:33N 34°33' E 135°19'0 0.0
2015-Jun-24 05:33N 34°33' E 135°19'0 0.0
2015-Jun-24 04:33N 34°33' E 135°19'0 0.1
2015-Jun-24 03:27N 34°33' E 135°19'0 0.1
2015-Jun-24 02:33N 34°33' E 135°19'0 0.0
2015-Jun-24 01:27N 34°33' E 135°19'0 0.0
2015-Jun-24 00:33N 34°33' E 135°19'0 0.1
2015-Jun-23 23:33N 34°33' E 135°19'0 0.1
2015-Jun-23 22:27N 34°33' E 135°19'0 0.0
2015-Jun-23 21:27N 34°33' E 135°19'0 0.0
2015-Jun-23 20:33N 34°33' E 135°19'0 0.1
2015-Jun-23 19:33N 34°33' E 135°19'0 0.0
2015-Jun-23 19:03N 34°33' E 135°19'26 1.0
2015-Jun-22 17:03N 34°33' E 134°47'815.7
2015-Jun-22 16:33N 34°36' E 134°56'1414.2
2015-Jun-22 15:33N 34°36' E 135°13'6 5.7
2015-Jun-22 14:33N 34°33' E 135°19'0 0.0
2015-Jun-22 13:27N 34°33' E 135°19'0 0.1
2015-Jun-22 12:27N 34°33' E 135°19'0 0.0
2015-Jun-22 11:21N 34°33' E 135°19'0 0.0
2015-Jun-22 10:33N 34°33' E 135°19'0 0.0
2015-Jun-22 09:27N 34°33' E 135°19'0 0.1
2015-Jun-22 08:33N 34°33' E 135°19'5 0.4
2015-Jun-21 20:33N 34°33' E 135°25'5 4.9
2015-Jun-21 19:30N 34°33' E 135°19'0 0.3
2015-Jun-21 18:33N 34°32' E 135°19'1211.9
2015-Jun-21 17:33N 34°25' E 135°08'1211.7
2015-Jun-21 16:33N 34°15' E 135°00'9 0.9
2015-Jun-21 05:32N 34°07' E 135°07'1 0.7
2015-Jun-21 04:29N 34°08' E 135°07'0 0.1
2015-Jun-21 03:32N 34°08' E 135°07'0 0.1
2015-Jun-21 02:32N 34°08' E 135°07'0 0.0
2015-Jun-21 01:23N 34°08' E 135°07'0 0.1
2015-Jun-21 00:32N 34°08' E 135°07'0 0.0
2015-Jun-20 23:32N 34°08' E 135°07'0 0.0
2015-Jun-20 22:32N 34°08' E 135°07'0 0.0
2015-Jun-20 21:29N 34°08' E 135°07'0 0.0
2015-Jun-20 20:29N 34°08' E 135°07'0 0.0
2015-Jun-20 19:29N 34°08' E 135°07'0 0.0
2015-Jun-20 18:29N 34°08' E 135°07'0 0.0
2015-Jun-20 17:32N 34°08' E 135°07'0 0.1
2015-Jun-20 16:32N 34°08' E 135°07'  
Track history (hours):
 
Tides and Currents Weather Stations Pressure Air Temp Water Temp Dewpoint Dewpoint Depression Visibility Wind Speed Wind Dir Waves Ship Positions

New Yoshino

Last reported at 2015-Jun-30 16:30 UTC. Time now 2015-Jul-01 19:18 UTC.
Position N 36°11' E 141°04'.

Length 102 m; draft 6.3 m.

Type: Tanker. MMSI: 431300724.

Date/timePositionNaut miles runAvg speedWind from/ knotsBaromVisibWave heightAir tempDewpointWater temp
2015-Jun-30 16:30N 36°11' E 141°04'1212.8
2015-Jun-30 15:33N 35°60' E 141°02'1312.9
2015-Jun-30 14:33N 35°47' E 140°59'1313.0
2015-Jun-30 13:33N 35°35' E 140°53'1413.8
2015-Jun-30 12:33N 35°24' E 140°42'3113.5
2015-Jun-30 10:15N 35°01' E 140°17'912.9
2015-Jun-30 09:33N 34°56' E 140°07'2010.1
2015-Jun-30 07:33N 34°56' E 139°43'1313.1
2015-Jun-30 06:33N 35°08' E 139°45'1211.7
2015-Jun-30 05:34N 35°20' E 139°42'1110.9
2015-Jun-30 04:33N 35°30' E 139°47'1 1.2
2015-Jun-30 03:31N 35°31' E 139°46'0 0.0
2015-Jun-30 02:10N 35°31' E 139°46'0 0.0
2015-Jun-30 01:28N 35°31' E 139°46'0 0.0
2015-Jun-30 00:28N 35°31' E 139°46'0 0.0
2015-Jun-29 23:25N 35°31' E 139°46'0 0.0
2015-Jun-29 22:31N 35°31' E 139°46'0 0.0
2015-Jun-29 21:31N 35°31' E 139°46'1 1.1
2015-Jun-29 20:33N 35°30' E 139°45'0 0.0
2015-Jun-29 19:33N 35°30' E 139°45'0 0.0
2015-Jun-29 18:33N 35°30' E 139°45'0 0.0
2015-Jun-29 17:33N 35°30' E 139°45'0 0.0
2015-Jun-29 16:30N 35°30' E 139°45'0 0.0
2015-Jun-29 15:33N 35°30' E 139°45'0 0.0
2015-Jun-29 14:33N 35°30' E 139°45'0 0.0
2015-Jun-29 13:33N 35°30' E 139°45'0 0.0
2015-Jun-29 12:33N 35°30' E 139°45'0 0.0
2015-Jun-29 11:33N 35°30' E 139°45'0 0.0
2015-Jun-29 10:33N 35°30' E 139°45'0 0.0
2015-Jun-29 09:33N 35°30' E 139°45'0 0.0
2015-Jun-29 08:33N 35°30' E 139°45'0 0.0
2015-Jun-29 07:33N 35°30' E 139°45'0 0.0
2015-Jun-29 06:33N 35°30' E 139°45'0 0.0
2015-Jun-29 05:33N 35°30' E 139°45'0 0.0
2015-Jun-29 04:30N 35°30' E 139°45'0 0.0
2015-Jun-29 03:33N 35°30' E 139°45'0 0.0
2015-Jun-29 02:33N 35°30' E 139°45'0 0.0
2015-Jun-29 01:33N 35°30' E 139°45'0 0.0
2015-Jun-29 00:33N 35°30' E 139°45'1 1.1
2015-Jun-28 23:33N 35°30' E 139°44'6 5.7
2015-Jun-28 22:33N 35°24' E 139°45'0 0.0
2015-Jun-28 21:33N 35°24' E 139°45'5 4.7
2015-Jun-28 20:33N 35°20' E 139°43'1211.5
2015-Jun-28 19:33N 35°09' E 139°46'1313.2
2015-Jun-28 18:33N 34°59' E 139°34'7 0.2
2015-Jun-27 09:06N 34°55' E 139°27'611.4
2015-Jun-27 08:32N 34°60' E 139°33'1111.5
2015-Jun-27 07:34N 35°07' E 139°43'1111.3
2015-Jun-27 06:34N 35°18' E 139°44'1010.5
2015-Jun-27 05:34N 35°28' E 139°50'1110.6
2015-Jun-27 04:34N 35°31' E 140°02'0 0.4
2015-Jun-27 03:33N 35°31' E 140°02'0 0.0
2015-Jun-27 02:33N 35°31' E 140°02'0 0.0
2015-Jun-27 01:33N 35°31' E 140°02'0 0.0
2015-Jun-27 00:30N 35°31' E 140°02'0 0.0
2015-Jun-26 23:33N 35°31' E 140°02'5 5.2
2015-Jun-26 22:33N 35°30' E 139°56'1 0.9
2015-Jun-26 21:20N 35°30' E 139°55'0 0.0
2015-Jun-26 20:32N 35°30' E 139°55'0 0.0
2015-Jun-26 19:05N 35°30' E 139°55'0 0.0
2015-Jun-26 18:17N 35°30' E 139°55'0 0.0
2015-Jun-26 17:17N 35°30' E 139°55'0 0.0
2015-Jun-26 16:23N 35°30' E 139°55'0 0.0
2015-Jun-26 15:29N 35°30' E 139°55'0 0.0
2015-Jun-26 14:29N 35°30' E 139°55'0 0.0
2015-Jun-26 13:29N 35°30' E 139°55'0 0.0
2015-Jun-26 12:32N 35°30' E 139°55'0 0.0
2015-Jun-26 11:17N 35°30' E 139°55'0 0.1
2015-Jun-26 10:29N 35°30' E 139°55'0 0.0
2015-Jun-26 09:29N 35°30' E 139°55'0 0.0
2015-Jun-26 08:23N 35°30' E 139°55'7 8.1
2015-Jun-26 07:33N 35°30' E 139°47'1 1.0
2015-Jun-26 06:28N 35°31' E 139°46'0 0.0
2015-Jun-26 05:28N 35°31' E 139°46'1 0.9
2015-Jun-26 04:33N 35°30' E 139°46'6 6.1
2015-Jun-26 03:31N 35°24' E 139°45'0 0.0
2015-Jun-26 02:28N 35°24' E 139°45'0 0.0
2015-Jun-26 01:31N 35°24' E 139°45'0 0.0
2015-Jun-26 00:31N 35°24' E 139°45'0 0.0
2015-Jun-25 23:31N 35°24' E 139°45'0 0.0
2015-Jun-25 22:31N 35°24' E 139°45'0 0.0
2015-Jun-25 21:31N 35°24' E 139°45'8 8.8
2015-Jun-25 20:33N 35°16' E 139°46'1212.1
2015-Jun-25 19:33N 35°04' E 139°42'1413.6
2015-Jun-25 18:33N 34°56' E 139°29'23011.9
2015-Jun-24 23:10N 33°56' E 134°59'914.5
2015-Jun-24 22:33N 34°04' E 134°59'1514.5
2015-Jun-24 21:33N 34°19' E 134°59'1414.0
2015-Jun-24 20:32N 34°29' E 135°12'1212.4
2015-Jun-24 19:34N 34°33' E 135°25'0 0.0
2015-Jun-24 08:21N 34°33' E 135°26'1 1.1
2015-Jun-24 07:33N 34°33' E 135°25'5 4.7
2015-Jun-24 06:33N 34°33' E 135°19'0 0.0
2015-Jun-24 05:33N 34°33' E 135°19'0 0.0
2015-Jun-24 04:33N 34°33' E 135°19'0 0.1
2015-Jun-24 03:27N 34°33' E 135°19'0 0.1
2015-Jun-24 02:33N 34°33' E 135°19'0 0.0
2015-Jun-24 01:27N 34°33' E 135°19'0 0.0
2015-Jun-24 00:33N 34°33' E 135°19'0 0.1
2015-Jun-23 23:33N 34°33' E 135°19'0 0.1
2015-Jun-23 22:27N 34°33' E 135°19'0 0.0
2015-Jun-23 21:27N 34°33' E 135°19'0 0.0
2015-Jun-23 20:33N 34°33' E 135°19'0 0.1
2015-Jun-23 19:33N 34°33' E 135°19'0 0.0
2015-Jun-23 19:03N 34°33' E 135°19'26 1.0
2015-Jun-22 17:03N 34°33' E 134°47'815.7
2015-Jun-22 16:33N 34°36' E 134°56'1414.2
2015-Jun-22 15:33N 34°36' E 135°13'6 5.7
2015-Jun-22 14:33N 34°33' E 135°19'0 0.0
2015-Jun-22 13:27N 34°33' E 135°19'0 0.1
2015-Jun-22 12:27N 34°33' E 135°19'0 0.0
2015-Jun-22 11:21N 34°33' E 135°19'0 0.0
2015-Jun-22 10:33N 34°33' E 135°19'0 0.0
2015-Jun-22 09:27N 34°33' E 135°19'0 0.1
2015-Jun-22 08:33N 34°33' E 135°19'5 0.4
2015-Jun-21 20:33N 34°33' E 135°25'5 4.9
2015-Jun-21 19:30N 34°33' E 135°19'0 0.3
2015-Jun-21 18:33N 34°32' E 135°19'1211.9
2015-Jun-21 17:33N 34°25' E 135°08'1211.7
2015-Jun-21 16:33N 34°15' E 135°00'9 0.9
2015-Jun-21 05:32N 34°07' E 135°07'1 0.7
2015-Jun-21 04:29N 34°08' E 135°07'0 0.1
2015-Jun-21 03:32N 34°08' E 135°07'0 0.1
2015-Jun-21 02:32N 34°08' E 135°07'0 0.0
2015-Jun-21 01:23N 34°08' E 135°07'0 0.1
2015-Jun-21 00:32N 34°08' E 135°07'0 0.0
2015-Jun-20 23:32N 34°08' E 135°07'0 0.0
2015-Jun-20 22:32N 34°08' E 135°07'0 0.0
2015-Jun-20 21:29N 34°08' E 135°07'0 0.0
2015-Jun-20 20:29N 34°08' E 135°07'0 0.0
2015-Jun-20 19:29N 34°08' E 135°07'0 0.0
2015-Jun-20 18:29N 34°08' E 135°07'0 0.0
2015-Jun-20 17:32N 34°08' E 135°07'0 0.1
2015-Jun-20 16:32N 34°08' E 135°07'  

Dump ship's entire track history